sensor_id;sensor_type;location;lat;lon;timestamp;temperature;humidity
5459;DHT22;2752;49.992;8.422;2023-08-31T00:01:03;14.20;99.90
5459;DHT22;2752;49.992;8.422;2023-08-31T00:03:30;14.40;99.90
5459;DHT22;2752;49.992;8.422;2023-08-31T00:05:57;14.10;99.90
5459;DHT22;2752;49.992;8.422;2023-08-31T00:08:24;14.20;99.90
5459;DHT22;2752;49.992;8.422;2023-08-31T00:13:27;13.60;99.90
5459;DHT22;2752;49.992;8.422;2023-08-31T00:15:56;14.10;99.90
5459;DHT22;2752;49.992;8.422;2023-08-31T00:18:23;14.20;99.90
5459;DHT22;2752;49.992;8.422;2023-08-31T00:20:50;14.00;99.90
5459;DHT22;2752;49.992;8.422;2023-08-31T00:23:17;14.10;99.90
5459;DHT22;2752;49.992;8.422;2023-08-31T00:25:44;13.90;99.90
5459;DHT22;2752;49.992;8.422;2023-08-31T00:28:11;13.90;99.90
5459;DHT22;2752;49.992;8.422;2023-08-31T00:30:37;13.90;99.90
5459;DHT22;2752;49.992;8.422;2023-08-31T00:33:05;14.30;99.90
5459;DHT22;2752;49.992;8.422;2023-08-31T00:35:33;14.10;99.90
5459;DHT22;2752;49.992;8.422;2023-08-31T00:38:00;14.20;98.30
5459;DHT22;2752;49.992;8.422;2023-08-31T00:40:27;14.20;97.50
5459;DHT22;2752;49.992;8.422;2023-08-31T00:42:59;14.20;96.00
5459;DHT22;2752;49.992;8.422;2023-08-31T00:45:26;14.20;98.90
5459;DHT22;2752;49.992;8.422;2023-08-31T00:47:54;14.40;96.70
5459;DHT22;2752;49.992;8.422;2023-08-31T00:50:24;14.20;95.60
5459;DHT22;2752;49.992;8.422;2023-08-31T00:52:50;14.20;97.50
5459;DHT22;2752;49.992;8.422;2023-08-31T00:55:17;14.20;98.40
5459;DHT22;2752;49.992;8.422;2023-08-31T00:57:44;14.20;99.60
5459;DHT22;2752;49.992;8.422;2023-08-31T01:00:12;14.00;98.10
5459;DHT22;2752;49.992;8.422;2023-08-31T01:02:43;14.20;94.20
5459;DHT22;2752;49.992;8.422;2023-08-31T01:05:21;14.00;96.30
5459;DHT22;2752;49.992;8.422;2023-08-31T01:07:57;14.20;94.80
5459;DHT22;2752;49.992;8.422;2023-08-31T01:10:37;14.00;90.50
5459;DHT22;2752;49.992;8.422;2023-08-31T01:13:11;13.80;93.60
5459;DHT22;2752;49.992;8.422;2023-08-31T01:15:45;13.80;96.30
5459;DHT22;2752;49.992;8.422;2023-08-31T01:18:15;14.00;99.90
5459;DHT22;2752;49.992;8.422;2023-08-31T01:20:46;13.80;98.80
5459;DHT22;2752;49.992;8.422;2023-08-31T01:23:19;13.70;97.00
5459;DHT22;2752;49.992;8.422;2023-08-31T01:25:47;13.80;99.90
5459;DHT22;2752;49.992;8.422;2023-08-31T01:28:14;13.80;99.90
5459;DHT22;2752;49.992;8.422;2023-08-31T01:30:41;13.60;99.90
5459;DHT22;2752;49.992;8.422;2023-08-31T01:33:08;13.50;99.80
5459;DHT22;2752;49.992;8.422;2023-08-31T01:35:40;13.60;99.90
5459;DHT22;2752;49.992;8.422;2023-08-31T01:38:10;13.50;99.90
5459;DHT22;2752;49.992;8.422;2023-08-31T01:40:42;13.40;99.90
5459;DHT22;2752;49.992;8.422;2023-08-31T01:43:12;13.90;99.90
5459;DHT22;2752;49.992;8.422;2023-08-31T01:45:40;13.10;99.90
5459;DHT22;2752;49.992;8.422;2023-08-31T01:48:07;13.30;99.90
5459;DHT22;2752;49.992;8.422;2023-08-31T01:50:34;13.20;99.90
5459;DHT22;2752;49.992;8.422;2023-08-31T01:55:28;13.40;99.90
5459;DHT22;2752;49.992;8.422;2023-08-31T01:57:54;13.40;99.90
5459;DHT22;2752;49.992;8.422;2023-08-31T02:00:24;13.50;99.90
5459;DHT22;2752;49.992;8.422;2023-08-31T02:02:51;13.20;99.90
5459;DHT22;2752;49.992;8.422;2023-08-31T02:05:18;13.00;99.90
5459;DHT22;2752;49.992;8.422;2023-08-31T02:07:45;13.00;99.90
5459;DHT22;2752;49.992;8.422;2023-08-31T02:10:12;13.10;99.90
5459;DHT22;2752;49.992;8.422;2023-08-31T02:12:39;13.20;99.90
5459;DHT22;2752;49.992;8.422;2023-08-31T02:15:07;13.20;99.90
5459;DHT22;2752;49.992;8.422;2023-08-31T02:17:35;13.20;99.90
5459;DHT22;2752;49.992;8.422;2023-08-31T02:20:02;13.80;99.90
5459;DHT22;2752;49.992;8.422;2023-08-31T02:22:30;13.10;99.90
5459;DHT22;2752;49.992;8.422;2023-08-31T02:24:57;13.10;99.90
5459;DHT22;2752;49.992;8.422;2023-08-31T02:27:24;13.10;99.90
5459;DHT22;2752;49.992;8.422;2023-08-31T02:29:50;13.10;99.90
5459;DHT22;2752;49.992;8.422;2023-08-31T02:32:17;13.80;99.90
5459;DHT22;2752;49.992;8.422;2023-08-31T02:34:45;13.10;99.90
5459;DHT22;2752;49.992;8.422;2023-08-31T02:37:12;13.10;99.90
5459;DHT22;2752;49.992;8.422;2023-08-31T02:39:38;13.20;99.90
5459;DHT22;2752;49.992;8.422;2023-08-31T02:42:05;13.00;99.90
5459;DHT22;2752;49.992;8.422;2023-08-31T02:44:33;13.20;99.90
5459;DHT22;2752;49.992;8.422;2023-08-31T02:47:00;13.10;99.90
5459;DHT22;2752;49.992;8.422;2023-08-31T02:49:26;13.20;99.90
5459;DHT22;2752;49.992;8.422;2023-08-31T02:51:55;13.40;99.90
5459;DHT22;2752;49.992;8.422;2023-08-31T02:54:21;13.20;99.90
5459;DHT22;2752;49.992;8.422;2023-08-31T02:56:48;13.20;99.90
5459;DHT22;2752;49.992;8.422;2023-08-31T02:59:15;13.20;99.90
5459;DHT22;2752;49.992;8.422;2023-08-31T03:01:42;13.20;99.90
5459;DHT22;2752;49.992;8.422;2023-08-31T03:04:11;13.00;99.90
5459;DHT22;2752;49.992;8.422;2023-08-31T03:06:38;13.10;99.90
5459;DHT22;2752;49.992;8.422;2023-08-31T03:09:06;12.80;99.90
5459;DHT22;2752;49.992;8.422;2023-08-31T03:11:33;13.00;99.90
5459;DHT22;2752;49.992;8.422;2023-08-31T03:14:00;12.90;99.90
5459;DHT22;2752;49.992;8.422;2023-08-31T03:16:26;13.00;99.90
5459;DHT22;2752;49.992;8.422;2023-08-31T03:18:53;12.90;99.90
5459;DHT22;2752;49.992;8.422;2023-08-31T03:21:19;12.90;99.90
5459;DHT22;2752;49.992;8.422;2023-08-31T03:23:46;12.70;99.90
5459;DHT22;2752;49.992;8.422;2023-08-31T03:26:14;13.00;99.90
5459;DHT22;2752;49.992;8.422;2023-08-31T03:28:41;12.80;99.90
5459;DHT22;2752;49.992;8.422;2023-08-31T03:31:07;13.00;99.90
5459;DHT22;2752;49.992;8.422;2023-08-31T03:33:34;13.60;99.90
5459;DHT22;2752;49.992;8.422;2023-08-31T03:36:01;12.70;99.90
5459;DHT22;2752;49.992;8.422;2023-08-31T03:38:30;12.70;99.90
5459;DHT22;2752;49.992;8.422;2023-08-31T03:40:57;12.70;99.90
5459;DHT22;2752;49.992;8.422;2023-08-31T03:43:25;12.70;99.90
5459;DHT22;2752;49.992;8.422;2023-08-31T03:45:54;12.60;99.90
5459;DHT22;2752;49.992;8.422;2023-08-31T03:48:22;12.70;99.90
5459;DHT22;2752;49.992;8.422;2023-08-31T03:53:16;12.60;99.90
5459;DHT22;2752;49.992;8.422;2023-08-31T03:55:43;12.60;99.90
5459;DHT22;2752;49.992;8.422;2023-08-31T04:17:51;12.30;99.90
5459;DHT22;2752;49.992;8.422;2023-08-31T04:20:18;12.50;99.90
5459;DHT22;2752;49.992;8.422;2023-08-31T04:32:33;12.70;99.90
5459;DHT22;2752;49.992;8.422;2023-08-31T04:35:02;12.20;99.90
5459;DHT22;2752;49.992;8.422;2023-08-31T04:39:57;12.40;99.90
5459;DHT22;2752;49.992;8.422;2023-08-31T04:42:24;12.20;99.90
5459;DHT22;2752;49.992;8.422;2023-08-31T04:44:51;13.50;99.90
5459;DHT22;2752;49.992;8.422;2023-08-31T04:47:17;12.30;99.90
5459;DHT22;2752;49.992;8.422;2023-08-31T04:49:44;12.40;99.90
5459;DHT22;2752;49.992;8.422;2023-08-31T04:54:38;12.80;99.90
5459;DHT22;2752;49.992;8.422;2023-08-31T05:21:39;12.90;99.90
5459;DHT22;2752;49.992;8.422;2023-08-31T05:29:01;12.50;99.90
5459;DHT22;2752;49.992;8.422;2023-08-31T05:31:29;12.10;99.90
5459;DHT22;2752;49.992;8.422;2023-08-31T05:33:56;12.50;99.90
5459;DHT22;2752;49.992;8.422;2023-08-31T05:36:22;13.20;99.90
5459;DHT22;2752;49.992;8.422;2023-08-31T05:38:50;12.30;99.90
5459;DHT22;2752;49.992;8.422;2023-08-31T05:41:17;12.30;99.90
5459;DHT22;2752;49.992;8.422;2023-08-31T05:43:45;12.50;99.90
5459;DHT22;2752;49.992;8.422;2023-08-31T05:48:39;12.80;99.90
5459;DHT22;2752;49.992;8.422;2023-08-31T05:51:05;12.60;99.90
5459;DHT22;2752;49.992;8.422;2023-08-31T05:53:32;12.80;99.90
5459;DHT22;2752;49.992;8.422;2023-08-31T05:55:59;12.80;99.90
5459;DHT22;2752;49.992;8.422;2023-08-31T05:58:30;13.10;99.90
5459;DHT22;2752;49.992;8.422;2023-08-31T06:00:58;12.90;99.90
5459;DHT22;2752;49.992;8.422;2023-08-31T06:03:25;12.90;99.90
5459;DHT22;2752;49.992;8.422;2023-08-31T06:08:20;14.40;99.90
5459;DHT22;2752;49.992;8.422;2023-08-31T06:10:46;13.40;99.90
5459;DHT22;2752;49.992;8.422;2023-08-31T06:13:13;14.10;99.90
5459;DHT22;2752;49.992;8.422;2023-08-31T06:15:40;13.80;96.60
5459;DHT22;2752;49.992;8.422;2023-08-31T06:18:08;13.90;99.90
5459;DHT22;2752;49.992;8.422;2023-08-31T06:20:35;14.00;99.90
5459;DHT22;2752;49.992;8.422;2023-08-31T06:25:29;14.30;83.50
5459;DHT22;2752;49.992;8.422;2023-08-31T06:30:23;14.50;82.70
5459;DHT22;2752;49.992;8.422;2023-08-31T06:42:39;14.90;82.40
5459;DHT22;2752;49.992;8.422;2023-08-31T06:45:07;14.70;98.70
5459;DHT22;2752;49.992;8.422;2023-08-31T06:47:34;14.80;96.60
5459;DHT22;2752;49.992;8.422;2023-08-31T06:52:30;15.20;91.30
5459;DHT22;2752;49.992;8.422;2023-08-31T06:54:57;14.70;92.70
5459;DHT22;2752;49.992;8.422;2023-08-31T06:57:24;14.90;90.60
5459;DHT22;2752;49.992;8.422;2023-08-31T06:59:51;15.10;87.20
5459;DHT22;2752;49.992;8.422;2023-08-31T07:02:18;15.00;69.50
5459;DHT22;2752;49.992;8.422;2023-08-31T07:04:46;15.90;81.50
5459;DHT22;2752;49.992;8.422;2023-08-31T07:07:13;15.20;83.30
5459;DHT22;2752;49.992;8.422;2023-08-31T07:09:42;15.60;82.20
5459;DHT22;2752;49.992;8.422;2023-08-31T07:12:08;15.70;75.40
5459;DHT22;2752;49.992;8.422;2023-08-31T07:17:02;15.80;66.80
5459;DHT22;2752;49.992;8.422;2023-08-31T07:19:29;15.60;78.10
5459;DHT22;2752;49.992;8.422;2023-08-31T07:21:56;15.90;78.60
5459;DHT22;2752;49.992;8.422;2023-08-31T07:26:51;16.30;57.20
5459;DHT22;2752;49.992;8.422;2023-08-31T07:29:18;16.20;63.70
5459;DHT22;2752;49.992;8.422;2023-08-31T07:31:45;16.10;54.10
5459;DHT22;2752;49.992;8.422;2023-08-31T07:34:12;16.20;41.70
5459;DHT22;2752;49.992;8.422;2023-08-31T07:36:38;16.00;51.90
5459;DHT22;2752;49.992;8.422;2023-08-31T07:39:05;15.60;40.30
5459;DHT22;2752;49.992;8.422;2023-08-31T07:41:32;15.60;45.90
5459;DHT22;2752;49.992;8.422;2023-08-31T07:44:00;15.70;44.40
5459;DHT22;2752;49.992;8.422;2023-08-31T07:46:28;16.00;46.50
5459;DHT22;2752;49.992;8.422;2023-08-31T07:48:54;16.20;43.00
5459;DHT22;2752;49.992;8.422;2023-08-31T07:51:21;16.30;45.10
5459;DHT22;2752;49.992;8.422;2023-08-31T08:01:11;16.50;39.60
5459;DHT22;2752;49.992;8.422;2023-08-31T08:03:38;16.40;38.20
5459;DHT22;2752;49.992;8.422;2023-08-31T08:06:05;16.50;31.70
5459;DHT22;2752;49.992;8.422;2023-08-31T08:15:55;17.40;14.90
5459;DHT22;2752;49.992;8.422;2023-08-31T08:25:44;16.90;10.40
5459;DHT22;2752;49.992;8.422;2023-08-31T08:28:11;16.90;8.70
5459;DHT22;2752;49.992;8.422;2023-08-31T08:30:38;17.00;6.80
5459;DHT22;2752;49.992;8.422;2023-08-31T08:33:04;17.00;8.80
5459;DHT22;2752;49.992;8.422;2023-08-31T08:35:32;17.30;1.00
5459;DHT22;2752;49.992;8.422;2023-08-31T08:45:24;17.80;1.00
5459;DHT22;2752;49.992;8.422;2023-08-31T08:52:48;18.80;1.00
5459;DHT22;2752;49.992;8.422;2023-08-31T08:55:13;18.50;1.00
5459;DHT22;2752;49.992;8.422;2023-08-31T09:09:59;18.80;1.00
5459;DHT22;2752;49.992;8.422;2023-08-31T09:17:26;18.50;1.00
5459;DHT22;2752;49.992;8.422;2023-08-31T09:20:04;19.50;1.00
5459;DHT22;2752;49.992;8.422;2023-08-31T09:22:32;18.90;1.00
5459;DHT22;2752;49.992;8.422;2023-08-31T09:25:00;19.10;1.00
5459;DHT22;2752;49.992;8.422;2023-08-31T09:27:28;19.60;1.00
5459;DHT22;2752;49.992;8.422;2023-08-31T09:29:56;19.40;1.00
5459;DHT22;2752;49.992;8.422;2023-08-31T09:34:51;19.80;1.00
5459;DHT22;2752;49.992;8.422;2023-08-31T09:39:45;19.60;1.00
5459;DHT22;2752;49.992;8.422;2023-08-31T09:44:43;19.50;1.00
5459;DHT22;2752;49.992;8.422;2023-08-31T09:47:10;19.20;1.00
5459;DHT22;2752;49.992;8.422;2023-08-31T09:49:38;19.30;1.00
5459;DHT22;2752;49.992;8.422;2023-08-31T09:52:09;19.30;1.00
5459;DHT22;2752;49.992;8.422;2023-08-31T09:54:36;19.10;1.00
5459;DHT22;2752;49.992;8.422;2023-08-31T09:57:05;19.20;1.00
5459;DHT22;2752;49.992;8.422;2023-08-31T09:59:35;19.30;1.00
5459;DHT22;2752;49.992;8.422;2023-08-31T10:02:01;19.30;1.00
5459;DHT22;2752;49.992;8.422;2023-08-31T10:06:59;19.10;1.00
5459;DHT22;2752;49.992;8.422;2023-08-31T10:09:26;19.20;1.00
5459;DHT22;2752;49.992;8.422;2023-08-31T10:11:54;19.10;1.00
5459;DHT22;2752;49.992;8.422;2023-08-31T10:14:21;19.30;1.00
5459;DHT22;2752;49.992;8.422;2023-08-31T10:16:50;19.40;1.00
5459;DHT22;2752;49.992;8.422;2023-08-31T10:19:18;19.60;1.00
5459;DHT22;2752;49.992;8.422;2023-08-31T10:21:45;19.60;1.00
5459;DHT22;2752;49.992;8.422;2023-08-31T10:24:11;19.70;1.00
5459;DHT22;2752;49.992;8.422;2023-08-31T10:26:38;19.60;1.00
5459;DHT22;2752;49.992;8.422;2023-08-31T10:29:05;19.70;1.00
5459;DHT22;2752;49.992;8.422;2023-08-31T10:31:32;19.70;1.00
5459;DHT22;2752;49.992;8.422;2023-08-31T10:34:02;19.60;1.00
5459;DHT22;2752;49.992;8.422;2023-08-31T10:36:36;19.80;1.00
5459;DHT22;2752;49.992;8.422;2023-08-31T10:39:11;20.00;1.00
5459;DHT22;2752;49.992;8.422;2023-08-31T10:41:38;20.00;1.00
5459;DHT22;2752;49.992;8.422;2023-08-31T10:44:18;19.80;1.00
5459;DHT22;2752;49.992;8.422;2023-08-31T10:49:15;20.00;1.00
5459;DHT22;2752;49.992;8.422;2023-08-31T10:51:44;20.20;1.00
5459;DHT22;2752;49.992;8.422;2023-08-31T10:54:12;20.50;1.00
5459;DHT22;2752;49.992;8.422;2023-08-31T10:57:09;20.80;1.00
5459;DHT22;2752;49.992;8.422;2023-08-31T10:59:42;21.20;1.00
5459;DHT22;2752;49.992;8.422;2023-08-31T11:02:08;21.20;1.00
5459;DHT22;2752;49.992;8.422;2023-08-31T11:04:54;21.50;1.00
5459;DHT22;2752;49.992;8.422;2023-08-31T11:07:25;21.40;1.00
5459;DHT22;2752;49.992;8.422;2023-08-31T11:10:06;21.40;1.00
5459;DHT22;2752;49.992;8.422;2023-08-31T11:12:33;21.50;1.00
5459;DHT22;2752;49.992;8.422;2023-08-31T11:15:00;21.50;1.00
5459;DHT22;2752;49.992;8.422;2023-08-31T11:17:29;21.70;1.00
5459;DHT22;2752;49.992;8.422;2023-08-31T11:19:57;21.80;1.00
5459;DHT22;2752;49.992;8.422;2023-08-31T11:22:24;21.70;1.00
5459;DHT22;2752;49.992;8.422;2023-08-31T11:24:51;21.80;1.00
5459;DHT22;2752;49.992;8.422;2023-08-31T11:27:19;21.70;1.00
5459;DHT22;2752;49.992;8.422;2023-08-31T11:29:45;21.60;1.00
5459;DHT22;2752;49.992;8.422;2023-08-31T11:32:12;21.30;1.00
5459;DHT22;2752;49.992;8.422;2023-08-31T11:34:40;21.00;1.00
5459;DHT22;2752;49.992;8.422;2023-08-31T11:37:10;21.20;1.00
5459;DHT22;2752;49.992;8.422;2023-08-31T11:39:37;21.20;1.00
5459;DHT22;2752;49.992;8.422;2023-08-31T11:42:05;21.00;1.00
5459;DHT22;2752;49.992;8.422;2023-08-31T11:44:32;20.90;1.00
5459;DHT22;2752;49.992;8.422;2023-08-31T11:46:58;20.80;1.00
5459;DHT22;2752;49.992;8.422;2023-08-31T11:49:26;20.80;1.00
5459;DHT22;2752;49.992;8.422;2023-08-31T11:51:53;20.90;1.00
5459;DHT22;2752;49.992;8.422;2023-08-31T11:54:24;21.30;1.00
5459;DHT22;2752;49.992;8.422;2023-08-31T11:56:51;21.30;1.00
5459;DHT22;2752;49.992;8.422;2023-08-31T12:01:46;21.80;1.00
5459;DHT22;2752;49.992;8.422;2023-08-31T12:04:14;22.00;1.00
5459;DHT22;2752;49.992;8.422;2023-08-31T12:06:41;22.10;1.00
5459;DHT22;2752;49.992;8.422;2023-08-31T12:09:09;22.20;1.00
5459;DHT22;2752;49.992;8.422;2023-08-31T12:21:39;21.70;1.00
5459;DHT22;2752;49.992;8.422;2023-08-31T12:29:03;20.90;1.00
5459;DHT22;2752;49.992;8.422;2023-08-31T12:31:30;20.90;1.00
5459;DHT22;2752;49.992;8.422;2023-08-31T12:33:57;21.00;1.00
5459;DHT22;2752;49.992;8.422;2023-08-31T12:36:26;20.90;1.00
5459;DHT22;2752;49.992;8.422;2023-08-31T12:38:52;20.80;1.00
5459;DHT22;2752;49.992;8.422;2023-08-31T12:41:19;20.90;1.00
5459;DHT22;2752;49.992;8.422;2023-08-31T12:43:46;20.90;1.00
5459;DHT22;2752;49.992;8.422;2023-08-31T12:46:14;21.00;1.00
5459;DHT22;2752;49.992;8.422;2023-08-31T12:48:42;21.30;1.00
5459;DHT22;2752;49.992;8.422;2023-08-31T12:51:09;21.50;1.00
5459;DHT22;2752;49.992;8.422;2023-08-31T12:53:38;21.70;1.00
5459;DHT22;2752;49.992;8.422;2023-08-31T12:56:05;21.80;1.00
5459;DHT22;2752;49.992;8.422;2023-08-31T12:58:31;22.00;1.00
5459;DHT22;2752;49.992;8.422;2023-08-31T13:00:58;22.10;1.00
5459;DHT22;2752;49.992;8.422;2023-08-31T13:03:26;22.30;1.00
5459;DHT22;2752;49.992;8.422;2023-08-31T13:05:54;22.50;1.00
5459;DHT22;2752;49.992;8.422;2023-08-31T13:08:20;22.60;1.00
5459;DHT22;2752;49.992;8.422;2023-08-31T13:10:51;22.40;1.00
5459;DHT22;2752;49.992;8.422;2023-08-31T13:13:17;22.30;1.00
5459;DHT22;2752;49.992;8.422;2023-08-31T13:15:45;22.30;1.00
5459;DHT22;2752;49.992;8.422;2023-08-31T13:20:41;22.30;1.00
5459;DHT22;2752;49.992;8.422;2023-08-31T13:23:14;22.20;1.00
5459;DHT22;2752;49.992;8.422;2023-08-31T13:25:42;22.10;1.00
5459;DHT22;2752;49.992;8.422;2023-08-31T13:28:09;21.80;1.00
5459;DHT22;2752;49.992;8.422;2023-08-31T13:30:36;21.60;1.00
5459;DHT22;2752;49.992;8.422;2023-08-31T13:33:03;21.60;1.00
5459;DHT22;2752;49.992;8.422;2023-08-31T13:35:30;21.50;1.00
5459;DHT22;2752;49.992;8.422;2023-08-31T13:37:58;21.90;1.00
5459;DHT22;2752;49.992;8.422;2023-08-31T13:40:25;22.10;1.00
5459;DHT22;2752;49.992;8.422;2023-08-31T13:42:54;21.90;1.00
5459;DHT22;2752;49.992;8.422;2023-08-31T13:45:22;22.00;1.00
5459;DHT22;2752;49.992;8.422;2023-08-31T13:47:49;22.30;1.00
5459;DHT22;2752;49.992;8.422;2023-08-31T13:50:16;22.20;1.00
5459;DHT22;2752;49.992;8.422;2023-08-31T13:52:43;22.30;1.00
5459;DHT22;2752;49.992;8.422;2023-08-31T13:55:12;22.30;1.00
5459;DHT22;2752;49.992;8.422;2023-08-31T13:57:41;22.40;1.00
5459;DHT22;2752;49.992;8.422;2023-08-31T14:02:36;22.20;1.00
5459;DHT22;2752;49.992;8.422;2023-08-31T14:05:04;22.50;1.00
5459;DHT22;2752;49.992;8.422;2023-08-31T14:07:32;22.20;1.00
5459;DHT22;2752;49.992;8.422;2023-08-31T14:09:58;21.90;1.00
5459;DHT22;2752;49.992;8.422;2023-08-31T14:12:26;21.80;1.00
5459;DHT22;2752;49.992;8.422;2023-08-31T14:14:53;21.70;1.00
5459;DHT22;2752;49.992;8.422;2023-08-31T14:17:20;21.50;1.00
5459;DHT22;2752;49.992;8.422;2023-08-31T14:19:47;21.50;1.00
5459;DHT22;2752;49.992;8.422;2023-08-31T14:22:13;21.50;1.00
5459;DHT22;2752;49.992;8.422;2023-08-31T14:24:40;21.50;1.00
5459;DHT22;2752;49.992;8.422;2023-08-31T14:27:07;21.30;1.00
5459;DHT22;2752;49.992;8.422;2023-08-31T14:29:36;21.40;1.00
5459;DHT22;2752;49.992;8.422;2023-08-31T14:32:03;21.50;1.00
5459;DHT22;2752;49.992;8.422;2023-08-31T14:34:30;21.30;1.00
5459;DHT22;2752;49.992;8.422;2023-08-31T14:36:57;21.40;1.00
5459;DHT22;2752;49.992;8.422;2023-08-31T14:39:25;21.60;1.00
5459;DHT22;2752;49.992;8.422;2023-08-31T14:41:55;21.70;1.00
5459;DHT22;2752;49.992;8.422;2023-08-31T14:44:21;21.70;1.00
5459;DHT22;2752;49.992;8.422;2023-08-31T14:46:49;21.80;1.00
5459;DHT22;2752;49.992;8.422;2023-08-31T14:49:16;21.90;1.00
5459;DHT22;2752;49.992;8.422;2023-08-31T14:54:10;21.60;1.00
5459;DHT22;2752;49.992;8.422;2023-08-31T14:56:37;21.20;1.00
5459;DHT22;2752;49.992;8.422;2023-08-31T14:59:03;21.30;1.00
5459;DHT22;2752;49.992;8.422;2023-08-31T15:01:30;21.20;1.00
5459;DHT22;2752;49.992;8.422;2023-08-31T15:03:58;21.20;1.00
5459;DHT22;2752;49.992;8.422;2023-08-31T15:06:25;21.30;1.00
5459;DHT22;2752;49.992;8.422;2023-08-31T15:08:51;21.30;1.00
5459;DHT22;2752;49.992;8.422;2023-08-31T15:11:18;21.50;1.00
5459;DHT22;2752;49.992;8.422;2023-08-31T15:13:45;21.70;1.00
5459;DHT22;2752;49.992;8.422;2023-08-31T15:18:38;22.00;1.00
5459;DHT22;2752;49.992;8.422;2023-08-31T15:21:06;22.10;1.00
5459;DHT22;2752;49.992;8.422;2023-08-31T15:23:33;21.90;1.00
5459;DHT22;2752;49.992;8.422;2023-08-31T15:28:28;22.00;1.00
5459;DHT22;2752;49.992;8.422;2023-08-31T15:30:54;22.00;1.00
5459;DHT22;2752;49.992;8.422;2023-08-31T15:33:21;21.70;1.00
5459;DHT22;2752;49.992;8.422;2023-08-31T15:35:48;21.60;1.00
5459;DHT22;2752;49.992;8.422;2023-08-31T15:38:16;21.50;1.00
5459;DHT22;2752;49.992;8.422;2023-08-31T15:40:46;21.50;1.00
5459;DHT22;2752;49.992;8.422;2023-08-31T15:43:12;21.50;1.00
5459;DHT22;2752;49.992;8.422;2023-08-31T15:45:44;21.40;1.00
5459;DHT22;2752;49.992;8.422;2023-08-31T15:50:39;21.20;1.00
5459;DHT22;2752;49.992;8.422;2023-08-31T15:53:06;21.10;1.00
5459;DHT22;2752;49.992;8.422;2023-08-31T15:55:34;21.20;1.00
5459;DHT22;2752;49.992;8.422;2023-08-31T15:58:00;21.20;1.00
5459;DHT22;2752;49.992;8.422;2023-08-31T16:00:27;21.10;1.00
5459;DHT22;2752;49.992;8.422;2023-08-31T16:02:54;21.30;1.00
5459;DHT22;2752;49.992;8.422;2023-08-31T16:05:21;21.40;1.00
5459;DHT22;2752;49.992;8.422;2023-08-31T16:07:48;21.40;1.00
5459;DHT22;2752;49.992;8.422;2023-08-31T16:10:15;21.30;1.00
5459;DHT22;2752;49.992;8.422;2023-08-31T16:12:43;21.20;1.00
5459;DHT22;2752;49.992;8.422;2023-08-31T16:15:10;21.50;1.00
5459;DHT22;2752;49.992;8.422;2023-08-31T16:17:36;21.10;1.00
5459;DHT22;2752;49.992;8.422;2023-08-31T16:20:04;21.00;1.00
5459;DHT22;2752;49.992;8.422;2023-08-31T16:22:33;20.90;1.00
5459;DHT22;2752;49.992;8.422;2023-08-31T16:25:00;20.80;1.00
5459;DHT22;2752;49.992;8.422;2023-08-31T16:27:26;20.60;1.00
5459;DHT22;2752;49.992;8.422;2023-08-31T16:29:56;20.50;1.00
5459;DHT22;2752;49.992;8.422;2023-08-31T16:32:22;20.50;1.00
5459;DHT22;2752;49.992;8.422;2023-08-31T16:34:50;20.40;1.00
5459;DHT22;2752;49.992;8.422;2023-08-31T16:37:17;20.40;1.00
5459;DHT22;2752;49.992;8.422;2023-08-31T16:39:44;20.30;1.00
5459;DHT22;2752;49.992;8.422;2023-08-31T16:47:07;20.20;1.00
5459;DHT22;2752;49.992;8.422;2023-08-31T16:49:35;20.10;1.00
5459;DHT22;2752;49.992;8.422;2023-08-31T16:52:02;20.30;1.00
5459;DHT22;2752;49.992;8.422;2023-08-31T16:54:29;20.20;1.00
5459;DHT22;2752;49.992;8.422;2023-08-31T16:56:56;20.20;1.00
5459;DHT22;2752;49.992;8.422;2023-08-31T16:59:23;20.20;1.00
5459;DHT22;2752;49.992;8.422;2023-08-31T17:01:49;20.40;1.00
5459;DHT22;2752;49.992;8.422;2023-08-31T17:04:17;20.20;1.00
5459;DHT22;2752;49.992;8.422;2023-08-31T17:06:44;20.40;1.00
5459;DHT22;2752;49.992;8.422;2023-08-31T17:09:11;20.10;1.00
5459;DHT22;2752;49.992;8.422;2023-08-31T17:11:37;20.00;1.00
5459;DHT22;2752;49.992;8.422;2023-08-31T17:14:04;20.00;1.00
5459;DHT22;2752;49.992;8.422;2023-08-31T17:16:31;20.20;1.00
5459;DHT22;2752;49.992;8.422;2023-08-31T17:18:58;20.00;1.00
5459;DHT22;2752;49.992;8.422;2023-08-31T17:21:26;20.30;1.00
5459;DHT22;2752;49.992;8.422;2023-08-31T17:23:53;19.90;1.00
5459;DHT22;2752;49.992;8.422;2023-08-31T17:26:20;19.80;1.00
5459;DHT22;2752;49.992;8.422;2023-08-31T17:28:47;19.80;1.00
5459;DHT22;2752;49.992;8.422;2023-08-31T17:31:14;19.80;1.00
5459;DHT22;2752;49.992;8.422;2023-08-31T17:33:41;19.70;1.00
5459;DHT22;2752;49.992;8.422;2023-08-31T17:36:07;19.80;1.00
5459;DHT22;2752;49.992;8.422;2023-08-31T17:38:35;19.60;1.00
5459;DHT22;2752;49.992;8.422;2023-08-31T17:41:07;19.90;1.00
5459;DHT22;2752;49.992;8.422;2023-08-31T17:43:34;19.50;1.00
5459;DHT22;2752;49.992;8.422;2023-08-31T17:46:00;19.40;1.00
5459;DHT22;2752;49.992;8.422;2023-08-31T17:48:28;19.30;1.00
5459;DHT22;2752;49.992;8.422;2023-08-31T17:50:56;19.50;1.00
5459;DHT22;2752;49.992;8.422;2023-08-31T17:53:23;19.50;1.00
5459;DHT22;2752;49.992;8.422;2023-08-31T17:55:51;19.30;1.00
5459;DHT22;2752;49.992;8.422;2023-08-31T17:58:18;19.30;1.00
5459;DHT22;2752;49.992;8.422;2023-08-31T18:00:44;19.30;1.00
5459;DHT22;2752;49.992;8.422;2023-08-31T18:05:38;19.30;1.00
5459;DHT22;2752;49.992;8.422;2023-08-31T18:08:12;19.20;1.00
5459;DHT22;2752;49.992;8.422;2023-08-31T18:10:39;19.10;1.00
5459;DHT22;2752;49.992;8.422;2023-08-31T18:13:07;19.00;1.00
5459;DHT22;2752;49.992;8.422;2023-08-31T18:15:34;18.90;1.00
5459;DHT22;2752;49.992;8.422;2023-08-31T18:18:00;19.00;1.00
5459;DHT22;2752;49.992;8.422;2023-08-31T18:20:29;19.00;1.00
5459;DHT22;2752;49.992;8.422;2023-08-31T18:22:56;18.90;1.00
5459;DHT22;2752;49.992;8.422;2023-08-31T18:25:23;18.80;1.00
5459;DHT22;2752;49.992;8.422;2023-08-31T18:27:52;18.80;1.00
5459;DHT22;2752;49.992;8.422;2023-08-31T18:30:22;18.70;1.00
5459;DHT22;2752;49.992;8.422;2023-08-31T18:32:49;18.70;1.00
5459;DHT22;2752;49.992;8.422;2023-08-31T18:35:18;18.70;1.00
5459;DHT22;2752;49.992;8.422;2023-08-31T18:37:46;18.60;1.00
5459;DHT22;2752;49.992;8.422;2023-08-31T18:40:13;18.60;1.00
5459;DHT22;2752;49.992;8.422;2023-08-31T18:42:42;18.60;1.00
5459;DHT22;2752;49.992;8.422;2023-08-31T18:45:10;18.50;1.00
5459;DHT22;2752;49.992;8.422;2023-08-31T18:47:43;18.40;1.00
5459;DHT22;2752;49.992;8.422;2023-08-31T18:50:12;18.40;1.00
5459;DHT22;2752;49.992;8.422;2023-08-31T18:52:47;18.30;1.00
5459;DHT22;2752;49.992;8.422;2023-08-31T18:55:16;18.20;1.00
5459;DHT22;2752;49.992;8.422;2023-08-31T18:57:49;18.20;1.00
5459;DHT22;2752;49.992;8.422;2023-08-31T19:00:22;18.10;1.00
5459;DHT22;2752;49.992;8.422;2023-08-31T19:05:28;17.90;1.00
5459;DHT22;2752;49.992;8.422;2023-08-31T19:07:55;17.90;1.00
5459;DHT22;2752;49.992;8.422;2023-08-31T19:10:22;17.80;1.00
5459;DHT22;2752;49.992;8.422;2023-08-31T19:12:49;17.80;1.00
5459;DHT22;2752;49.992;8.422;2023-08-31T19:15:16;17.80;1.00
5459;DHT22;2752;49.992;8.422;2023-08-31T19:17:43;17.70;1.00
5459;DHT22;2752;49.992;8.422;2023-08-31T19:20:13;17.70;1.00
5459;DHT22;2752;49.992;8.422;2023-08-31T19:22:42;17.60;1.00
5459;DHT22;2752;49.992;8.422;2023-08-31T19:25:09;17.60;1.00
5459;DHT22;2752;49.992;8.422;2023-08-31T19:27:37;17.60;1.00
5459;DHT22;2752;49.992;8.422;2023-08-31T19:30:05;17.60;1.00
5459;DHT22;2752;49.992;8.422;2023-08-31T19:32:31;17.60;1.00
5459;DHT22;2752;49.992;8.422;2023-08-31T19:34:58;17.50;1.00
5459;DHT22;2752;49.992;8.422;2023-08-31T19:37:33;17.50;1.00
5459;DHT22;2752;49.992;8.422;2023-08-31T19:40:00;17.40;1.00